createdAt,value
2019-05-21T00:01:05.243Z,30.00
2019-05-21T00:03:39.700Z,28.23
2019-05-21T00:06:12.828Z,28.57
2019-05-21T00:08:47.929Z,27.27
2019-05-21T00:11:19.701Z,27.73
2019-05-21T00:13:53.997Z,27.93
2019-05-21T00:16:26.177Z,27.75
2019-05-21T00:19:00.582Z,28.23
2019-05-21T00:21:34.893Z,35.17
2019-05-21T00:24:07.262Z,40.38
2019-05-21T00:26:39.953Z,50.30
2019-05-21T00:29:51.094Z,97.02
2019-05-21T00:32:59.521Z,27.77
2019-05-21T00:36:09.677Z,29.10
2019-05-21T00:39:17.898Z,26.90
2019-05-21T00:42:20.403Z,31.48
2019-05-21T00:44:53.507Z,24.63
2019-05-21T00:47:27.984Z,26.60
2019-05-21T00:50:03.308Z,27.77
2019-05-21T00:52:35.989Z,24.87
2019-05-21T00:55:08.911Z,31.25
2019-05-21T00:57:41.314Z,26.17
2019-05-21T01:00:16.400Z,27.82
2019-05-21T01:02:48.330Z,25.85
2019-05-21T01:05:21.366Z,29.65
2019-05-21T01:07:53.890Z,23.80
2019-05-21T01:10:26.356Z,22.85
2019-05-21T01:12:59.016Z,22.77
2019-05-21T01:15:33.960Z,21.02
2019-05-21T01:18:08.187Z,25.68
2019-05-21T01:20:39.837Z,21.97
2019-05-21T01:23:20.212Z,27.35
2019-05-21T01:25:52.756Z,25.35
2019-05-21T01:28:25.138Z,26.60
2019-05-21T01:30:58.705Z,26.35
2019-05-21T01:33:30.288Z,29.00
2019-05-21T01:36:01.771Z,24.63
2019-05-21T01:38:34.435Z,22.27
2019-05-21T01:41:07.100Z,28.07
2019-05-21T01:43:41.651Z,24.65
2019-05-21T01:46:16.072Z,23.67
2019-05-21T01:48:48.715Z,22.67
2019-05-21T01:51:21.382Z,28.45
2019-05-21T01:53:54.323Z,24.65
2019-05-21T01:56:27.108Z,24.10
2019-05-21T01:58:59.573Z,31.48
2019-05-21T02:01:32.417Z,24.20
2019-05-21T02:04:04.097Z,25.05
2019-05-21T02:06:36.155Z,20.35
2019-05-21T02:09:11.575Z,26.33
2019-05-21T02:11:46.255Z,23.18
2019-05-21T02:14:18.905Z,22.87
2019-05-21T02:16:53.020Z,21.23
2019-05-21T02:19:25.323Z,25.85
2019-05-21T02:21:57.945Z,23.80
2019-05-21T02:24:30.064Z,21.17
2019-05-21T02:27:01.130Z,22.07
2019-05-21T02:29:34.040Z,21.57
2019-05-21T02:32:05.867Z,27.27
2019-05-21T02:34:38.342Z,24.67
2019-05-21T02:37:09.547Z,21.52
2019-05-21T02:39:41.699Z,21.70
2019-05-21T02:42:14.157Z,24.27
2019-05-21T02:44:46.262Z,28.95
2019-05-21T02:47:17.337Z,25.05
2019-05-21T02:49:48.507Z,24.02
2019-05-21T02:52:20.708Z,24.30
2019-05-21T02:54:52.907Z,19.80
2019-05-21T02:57:27.754Z,21.45
2019-05-21T03:00:03.286Z,17.77
2019-05-21T03:02:37.240Z,19.15
2019-05-21T03:05:09.618Z,18.90
2019-05-21T03:07:42.211Z,22.40
2019-05-21T03:10:14.208Z,19.37
2019-05-21T03:12:46.505Z,20.80
2019-05-21T03:15:18.810Z,27.70
2019-05-21T03:17:49.990Z,23.27
2019-05-21T03:20:21.879Z,21.52
2019-05-21T03:22:55.631Z,24.92
2019-05-21T03:25:29.765Z,22.58
2019-05-21T03:28:01.708Z,23.13
2019-05-21T03:30:36.627Z,24.43
2019-05-21T03:33:09.163Z,25.92
2019-05-21T03:35:43.349Z,25.70
2019-05-21T03:38:17.718Z,22.05
2019-05-21T03:40:50.334Z,21.85
2019-05-21T03:43:21.505Z,22.07
2019-05-21T03:45:54.374Z,19.45
2019-05-21T03:48:30.608Z,22.48
2019-05-21T03:51:06.435Z,23.55
2019-05-21T03:53:43.330Z,19.80
2019-05-21T03:56:09.835Z,24.00
2019-05-21T03:58:42.447Z,22.00
2019-05-21T04:01:16.684Z,22.05
2019-05-21T04:03:48.807Z,26.95
2019-05-21T04:06:21.116Z,22.30
2019-05-21T04:08:53.318Z,21.35
2019-05-21T04:11:25.468Z,21.30
2019-05-21T04:13:58.013Z,21.85
2019-05-21T04:16:31.970Z,17.60
2019-05-21T04:19:07.302Z,20.15
2019-05-21T04:21:47.581Z,18.73
2019-05-21T04:24:19.839Z,21.80
2019-05-21T04:26:52.402Z,17.87
2019-05-21T04:29:26.092Z,20.23
2019-05-21T04:31:58.104Z,20.95
2019-05-21T04:34:30.143Z,19.37
2019-05-21T04:37:11.112Z,21.73
2019-05-21T04:39:37.431Z,21.23
2019-05-21T04:42:09.525Z,17.02
2019-05-21T04:44:44.555Z,22.15
2019-05-21T04:47:15.721Z,23.27
2019-05-21T04:49:47.784Z,20.25
2019-05-21T04:52:18.968Z,20.85
2019-05-21T04:54:52.977Z,20.85
2019-05-21T04:57:23.988Z,22.27
2019-05-21T04:59:55.165Z,22.82
2019-05-21T05:02:26.146Z,19.15
2019-05-21T05:05:00.209Z,23.65
2019-05-21T05:07:34.079Z,23.60
2019-05-21T05:10:07.010Z,19.73
2019-05-21T05:12:39.553Z,16.00
2019-05-21T05:15:11.904Z,19.27
2019-05-21T05:17:46.475Z,16.05
2019-05-21T05:20:21.724Z,16.70
2019-05-21T05:22:54.950Z,20.35
2019-05-21T05:25:27.119Z,19.27
2019-05-21T05:27:59.447Z,18.30
2019-05-21T05:30:31.756Z,17.50
2019-05-21T05:33:03.817Z,19.32
2019-05-21T05:35:36.014Z,17.17
2019-05-21T05:38:08.218Z,18.80
2019-05-21T05:40:39.273Z,19.23
2019-05-21T05:43:10.128Z,19.25
2019-05-21T05:45:44.273Z,21.07
2019-05-21T05:48:18.933Z,19.73
2019-05-21T05:53:27.210Z,17.27
2019-05-21T05:55:59.542Z,16.02
2019-05-21T05:58:33.198Z,15.23
2019-05-21T06:01:05.266Z,19.57
2019-05-21T06:03:40.496Z,14.00
2019-05-21T06:06:14.116Z,18.02
2019-05-21T06:08:46.688Z,17.12
2019-05-21T06:11:17.824Z,17.45
2019-05-21T06:13:50.282Z,14.10
2019-05-21T06:16:24.377Z,16.25
2019-05-21T06:18:55.435Z,21.85
2019-05-21T06:21:27.910Z,19.42
2019-05-21T06:24:00.615Z,20.10
2019-05-21T06:26:32.942Z,19.02
2019-05-21T06:29:07.062Z,22.15
2019-05-21T06:31:43.263Z,16.02
2019-05-21T06:34:17.055Z,17.73
2019-05-21T06:36:51.485Z,15.83
2019-05-21T06:39:23.191Z,14.87
2019-05-21T06:41:55.728Z,14.53
2019-05-21T06:44:28.224Z,14.85
2019-05-21T06:47:00.397Z,16.50
2019-05-21T06:49:31.423Z,13.93
2019-05-21T06:52:03.820Z,16.15
2019-05-21T06:54:41.370Z,20.43
2019-05-21T06:57:12.510Z,15.03
2019-05-21T06:59:44.983Z,17.10
2019-05-21T07:02:18.359Z,18.05
2019-05-21T07:04:52.514Z,19.20
2019-05-21T07:07:23.600Z,14.13
2019-05-21T07:09:57.466Z,13.30
2019-05-21T07:12:31.789Z,16.47
2019-05-21T07:15:04.663Z,16.17
2019-05-21T07:17:36.895Z,14.10
2019-05-21T07:20:08.980Z,15.15
2019-05-21T07:22:40.991Z,15.32
2019-05-21T07:25:13.634Z,16.40
2019-05-21T07:27:48.653Z,13.15
2019-05-21T07:30:21.815Z,13.68
2019-05-21T07:32:53.964Z,15.35
2019-05-21T07:35:26.562Z,16.73
2019-05-21T07:37:58.845Z,16.85
2019-05-21T07:40:32.329Z,18.17
2019-05-21T07:43:04.820Z,13.80
2019-05-21T07:45:37.057Z,14.80
2019-05-21T07:48:09.346Z,17.98
2019-05-21T07:50:43.073Z,15.08
2019-05-21T07:53:15.203Z,15.43
2019-05-21T07:55:46.725Z,15.08
2019-05-21T07:58:20.179Z,15.23
2019-05-21T08:00:52.407Z,14.68
2019-05-21T08:03:25.260Z,17.82
2019-05-21T08:05:57.571Z,13.60
2019-05-21T08:08:29.270Z,17.57
2019-05-21T08:11:01.467Z,18.25
2019-05-21T08:13:33.383Z,14.47
2019-05-21T08:16:04.631Z,17.85
2019-05-21T08:18:38.932Z,16.17
2019-05-21T08:21:10.209Z,18.62
2019-05-21T08:23:43.736Z,15.15
2019-05-21T08:26:16.557Z,16.75
2019-05-21T08:28:48.689Z,19.65
2019-05-21T08:31:20.632Z,20.62
2019-05-21T08:33:54.606Z,15.13
2019-05-21T08:36:26.970Z,14.30
2019-05-21T08:39:00.958Z,12.93
2019-05-21T08:41:35.078Z,15.50
2019-05-21T08:44:09.218Z,13.72
2019-05-21T08:46:41.500Z,15.83
2019-05-21T08:49:13.960Z,13.40
2019-05-21T08:51:46.260Z,17.77
2019-05-21T08:54:18.556Z,16.48
2019-05-21T08:56:50.884Z,16.73
2019-05-21T08:59:22.015Z,16.52
2019-05-21T09:01:53.410Z,15.08
2019-05-21T09:04:45.005Z,16.82
2019-05-21T09:06:59.206Z,18.82
2019-05-21T09:09:48.400Z,13.28
2019-05-21T09:12:05.758Z,12.65
2019-05-21T09:14:36.901Z,13.53
2019-05-21T09:17:11.176Z,19.32
2019-05-21T09:19:43.635Z,19.37
2019-05-21T09:22:17.681Z,15.10
2019-05-21T09:24:48.945Z,15.03
2019-05-21T09:27:21.007Z,14.30
2019-05-21T09:29:53.140Z,13.88
2019-05-21T09:32:25.289Z,15.28
2019-05-21T09:34:56.447Z,17.10
2019-05-21T09:37:30.314Z,29.00
2019-05-21T09:40:02.619Z,82.03
2019-05-21T09:42:34.659Z,60.80
2019-05-21T09:45:10.070Z,43.80
2019-05-21T09:47:42.319Z,26.90
2019-05-21T09:50:13.600Z,20.97
2019-05-21T09:52:47.768Z,20.17
2019-05-21T09:55:22.171Z,16.32
2019-05-21T09:57:54.549Z,14.13
2019-05-21T10:00:29.629Z,16.07
2019-05-21T10:03:02.329Z,13.55
2019-05-21T10:05:36.106Z,13.15
2019-05-21T10:08:07.561Z,13.68
2019-05-21T10:10:39.993Z,14.75
2019-05-21T10:13:14.319Z,10.58
2019-05-21T10:15:46.516Z,10.43
2019-05-21T10:18:21.358Z,11.57
2019-05-21T10:20:55.881Z,12.10
2019-05-21T10:23:27.102Z,20.48
2019-05-21T10:26:01.142Z,14.70
2019-05-21T10:28:36.047Z,21.57
2019-05-21T10:31:08.137Z,12.80
2019-05-21T10:33:40.729Z,9.85
2019-05-21T10:36:14.462Z,13.70
2019-05-21T10:38:46.543Z,13.22
2019-05-21T10:41:18.433Z,18.30
2019-05-21T10:43:52.840Z,31.10
2019-05-21T10:46:27.143Z,20.70
2019-05-21T10:49:01.262Z,12.60
2019-05-21T10:51:32.500Z,21.43
2019-05-21T10:54:05.210Z,32.23
2019-05-21T10:56:47.735Z,20.23
2019-05-21T10:59:14.160Z,17.15
2019-05-21T11:01:48.366Z,14.83
2019-05-21T11:04:22.075Z,15.70
2019-05-21T11:06:54.498Z,14.87
2019-05-21T11:09:27.084Z,13.05
2019-05-21T11:12:00.762Z,15.28
2019-05-21T11:14:32.901Z,21.50
2019-05-21T11:17:10.503Z,18.05
2019-05-21T11:19:41.745Z,20.77
2019-05-21T11:22:13.628Z,22.25
2019-05-21T11:24:48.510Z,20.23
2019-05-21T11:27:22.536Z,19.02
2019-05-21T11:29:53.601Z,21.30
2019-05-21T11:32:25.774Z,20.45
2019-05-21T11:34:56.883Z,24.65
2019-05-21T11:37:29.482Z,22.40
2019-05-21T11:40:01.703Z,20.15
2019-05-21T11:42:32.658Z,19.80
2019-05-21T11:45:06.218Z,22.55
2019-05-21T11:47:38.717Z,29.37
2019-05-21T11:50:11.252Z,20.50
2019-05-21T11:52:43.176Z,24.47
2019-05-21T11:55:14.340Z,28.73
2019-05-21T11:57:48.137Z,12.20
2019-05-21T12:00:21.738Z,8.80
2019-05-21T12:02:55.640Z,11.85
2019-05-21T12:05:30.560Z,12.40
2019-05-21T12:08:02.991Z,12.50
2019-05-21T12:10:37.216Z,12.63
2019-05-21T12:13:11.810Z,14.10
2019-05-21T12:15:43.871Z,14.05
2019-05-21T12:18:17.973Z,10.98
2019-05-21T12:20:51.639Z,10.38
2019-05-21T12:23:24.134Z,11.03
2019-05-21T12:25:56.182Z,9.28
2019-05-21T12:28:29.864Z,12.45
2019-05-21T12:31:04.663Z,10.55
2019-05-21T12:33:38.765Z,9.63
2019-05-21T12:36:11.207Z,13.60
2019-05-21T12:38:43.154Z,13.88
2019-05-21T12:41:14.687Z,12.80
2019-05-21T12:43:48.602Z,14.65
2019-05-21T12:46:20.847Z,12.10
2019-05-21T12:48:55.008Z,13.00
2019-05-21T12:51:26.278Z,10.50
2019-05-21T12:54:00.142Z,10.32
2019-05-21T12:56:34.174Z,11.18
2019-05-21T12:59:06.394Z,13.95
2019-05-21T13:01:38.863Z,9.38
2019-05-21T13:04:11.138Z,11.63
2019-05-21T13:06:43.290Z,13.45
2019-05-21T13:09:31.356Z,13.13
2019-05-21T13:11:49.547Z,11.90
2019-05-21T13:14:23.933Z,11.40
2019-05-21T13:16:56.337Z,8.80
2019-05-21T13:19:30.392Z,9.40
2019-05-21T13:22:02.575Z,13.80
2019-05-21T13:24:36.508Z,11.97
2019-05-21T13:27:08.971Z,14.80
2019-05-21T13:29:40.094Z,10.32
2019-05-21T13:32:11.141Z,12.23
2019-05-21T13:34:44.911Z,14.33
2019-05-21T13:37:17.064Z,11.50
2019-05-21T13:39:51.129Z,14.63
2019-05-21T13:42:25.905Z,10.88
2019-05-21T13:44:58.151Z,13.93
2019-05-21T13:47:30.170Z,12.07
2019-05-21T13:50:02.234Z,13.75
2019-05-21T13:52:36.184Z,9.75
2019-05-21T13:55:09.980Z,13.58
2019-05-21T13:57:42.734Z,12.20
2019-05-21T14:00:16.191Z,10.95
2019-05-21T14:02:47.564Z,14.35
2019-05-21T14:05:19.250Z,13.15
2019-05-21T14:07:51.524Z,12.37
2019-05-21T14:10:23.430Z,10.25
2019-05-21T14:12:55.915Z,12.53
2019-05-21T14:15:28.047Z,13.88
2019-05-21T14:18:00.109Z,18.52
2019-05-21T14:20:34.671Z,13.72
2019-05-21T14:23:06.938Z,13.03
2019-05-21T14:25:39.535Z,13.50
2019-05-21T14:28:11.449Z,12.88
2019-05-21T14:30:43.652Z,13.13
2019-05-21T14:33:15.927Z,12.68
2019-05-21T14:35:47.913Z,14.13
2019-05-21T14:38:21.586Z,13.72
2019-05-21T14:40:53.854Z,10.88
2019-05-21T14:43:25.786Z,10.23
2019-05-21T14:46:04.108Z,13.70
2019-05-21T14:48:33.769Z,10.72
2019-05-21T14:51:08.346Z,12.90
2019-05-21T14:53:40.441Z,11.45
2019-05-21T14:56:11.594Z,14.63
2019-05-21T14:58:43.933Z,11.60
2019-05-21T15:01:16.226Z,13.50
2019-05-21T15:03:48.231Z,11.90
2019-05-21T15:06:20.357Z,10.70
2019-05-21T15:08:52.704Z,11.45
2019-05-21T15:11:23.816Z,13.62
2019-05-21T15:13:54.887Z,11.40
2019-05-21T15:16:27.118Z,11.25
2019-05-21T15:18:59.628Z,15.50
2019-05-21T15:21:33.240Z,16.05
2019-05-21T15:24:05.541Z,12.33
2019-05-21T15:26:37.526Z,15.83
2019-05-21T15:29:08.823Z,14.70
2019-05-21T15:31:42.153Z,15.85
2019-05-21T15:34:16.440Z,16.17
2019-05-21T15:36:48.421Z,14.43
2019-05-21T15:39:19.692Z,12.13
2019-05-21T15:41:51.689Z,14.55
2019-05-21T15:44:25.205Z,13.62
2019-05-21T15:46:59.282Z,14.50
2019-05-21T15:49:36.163Z,15.88
2019-05-21T15:52:04.069Z,14.80
2019-05-21T15:54:38.282Z,17.82
2019-05-21T15:57:12.070Z,16.23
2019-05-21T15:59:43.880Z,11.05
2019-05-21T16:02:16.030Z,16.55
2019-05-21T16:04:51.046Z,13.85
2019-05-21T16:07:24.951Z,10.93
2019-05-21T16:09:57.413Z,15.83
2019-05-21T16:12:31.672Z,14.00
2019-05-21T16:15:03.484Z,12.77
2019-05-21T16:17:35.926Z,12.80
2019-05-21T16:20:10.012Z,15.40
2019-05-21T16:22:42.522Z,14.87
2019-05-21T16:25:14.479Z,13.60
2019-05-21T16:27:46.589Z,15.88
2019-05-21T16:30:19.187Z,17.15
2019-05-21T16:32:50.259Z,11.85
2019-05-21T16:35:24.021Z,15.35
2019-05-21T16:37:55.285Z,15.00
2019-05-21T16:40:27.322Z,12.30
2019-05-21T16:42:59.755Z,14.23
2019-05-21T16:45:33.693Z,15.40
2019-05-21T16:48:04.710Z,13.62
2019-05-21T16:50:36.879Z,15.10
2019-05-21T16:53:07.986Z,16.20
2019-05-21T16:55:40.198Z,15.98
2019-05-21T16:58:12.191Z,16.73
2019-05-21T17:00:44.320Z,11.10
2019-05-21T17:03:16.735Z,14.63
2019-05-21T17:05:49.055Z,13.15
2019-05-21T17:08:21.088Z,18.00
2019-05-21T17:10:53.080Z,15.18
2019-05-21T17:13:25.304Z,21.75
2019-05-21T17:15:57.689Z,22.37
2019-05-21T17:18:29.592Z,18.65
2019-05-21T17:21:00.665Z,21.62
2019-05-21T17:23:38.004Z,16.87
2019-05-21T17:26:09.102Z,17.95
2019-05-21T17:28:41.366Z,17.75
2019-05-21T17:31:15.281Z,18.05
2019-05-21T17:33:47.489Z,19.23
2019-05-21T17:36:18.636Z,24.70
2019-05-21T17:38:50.632Z,21.02
2019-05-21T17:41:22.718Z,20.35
2019-05-21T17:43:55.784Z,15.58
2019-05-21T17:46:27.412Z,15.48
2019-05-21T17:48:59.421Z,14.80
2019-05-21T17:51:31.862Z,18.98
2019-05-21T17:54:09.329Z,18.30
2019-05-21T17:56:40.311Z,18.20
2019-05-21T17:59:11.478Z,17.42
2019-05-21T18:01:45.574Z,22.73
2019-05-21T18:04:18.813Z,16.97
2019-05-21T18:06:55.661Z,14.60
2019-05-21T18:09:28.982Z,17.20
2019-05-21T18:12:01.292Z,15.83
2019-05-21T18:14:33.567Z,16.90
2019-05-21T18:17:07.441Z,13.50
2019-05-21T18:19:38.804Z,15.93
2019-05-21T18:22:12.504Z,14.38
2019-05-21T18:24:48.401Z,13.38
2019-05-21T18:27:18.583Z,15.60
2019-05-21T18:29:52.062Z,15.72
2019-05-21T18:32:24.374Z,15.30
2019-05-21T18:34:56.778Z,13.93
2019-05-21T18:37:30.427Z,15.08
2019-05-21T18:40:02.657Z,20.05
2019-05-21T18:42:33.728Z,17.37
2019-05-21T18:45:05.816Z,13.95
2019-05-21T18:47:37.063Z,13.38
2019-05-21T18:50:11.378Z,15.53
2019-05-21T18:52:43.938Z,16.50
2019-05-21T18:55:17.931Z,15.98
2019-05-21T18:57:51.408Z,15.40
2019-05-21T19:00:22.568Z,15.28
2019-05-21T19:02:54.697Z,16.23
2019-05-21T19:05:26.954Z,16.35
2019-05-21T19:07:59.226Z,22.95
2019-05-21T19:10:31.168Z,20.15
2019-05-21T19:13:02.094Z,16.07
2019-05-21T19:15:38.284Z,16.07
2019-05-21T19:18:09.427Z,17.60
2019-05-21T19:20:40.395Z,15.98
2019-05-21T19:23:13.166Z,17.48
2019-05-21T19:25:53.075Z,23.10
2019-05-21T19:28:26.568Z,19.32
2019-05-21T19:31:14.250Z,20.27
2019-05-21T19:33:46.670Z,22.93
2019-05-21T19:36:22.514Z,25.62
2019-05-21T19:38:54.637Z,22.15
2019-05-21T19:41:43.741Z,19.85
2019-05-21T19:44:37.387Z,26.75
2019-05-21T19:47:10.012Z,20.57
2019-05-21T19:49:44.849Z,20.80
2019-05-21T19:52:21.978Z,18.10
2019-05-21T19:55:12.799Z,18.65
2019-05-21T19:57:44.952Z,14.87
2019-05-21T20:00:19.311Z,15.00
2019-05-21T20:02:53.055Z,14.30
2019-05-21T20:05:25.555Z,13.58
2019-05-21T20:07:57.791Z,13.10
2019-05-21T20:10:29.471Z,15.70
2019-05-21T20:13:01.563Z,15.80
2019-05-21T20:15:33.454Z,17.05
2019-05-21T20:18:08.520Z,14.00
2019-05-21T20:20:41.661Z,13.43
2019-05-21T20:23:32.462Z,17.75
2019-05-21T20:26:05.232Z,15.78
2019-05-21T20:28:37.427Z,15.23
2019-05-21T20:31:20.000Z,15.78
2019-05-21T20:33:51.575Z,15.85
2019-05-21T20:36:22.942Z,17.25
2019-05-21T20:38:56.868Z,20.55
2019-05-21T20:41:29.335Z,18.37
2019-05-21T20:44:00.912Z,23.55
2019-05-21T20:46:33.556Z,20.90
2019-05-21T20:49:05.334Z,20.75
2019-05-21T20:51:40.202Z,17.82
2019-05-21T20:54:13.765Z,25.27
2019-05-21T20:56:48.071Z,18.25
2019-05-21T20:59:20.857Z,16.42
2019-05-21T21:01:53.428Z,13.35
2019-05-21T21:04:27.320Z,15.70
2019-05-21T21:06:58.438Z,16.65
2019-05-21T21:09:30.736Z,18.05
2019-05-21T21:12:02.516Z,11.28
2019-05-21T21:14:33.692Z,19.07
2019-05-21T21:17:06.870Z,16.52
2019-05-21T21:19:38.015Z,14.63
2019-05-21T21:22:10.639Z,22.25
2019-05-21T21:24:42.748Z,17.05
2019-05-21T21:27:15.274Z,14.85
2019-05-21T21:29:46.464Z,17.92
2019-05-21T21:32:17.428Z,12.28
2019-05-21T21:34:49.528Z,7.95
2019-05-21T21:37:22.074Z,11.30
2019-05-21T21:39:53.284Z,8.08
2019-05-21T21:42:25.501Z,9.80
2019-05-21T21:44:57.610Z,9.48
2019-05-21T21:47:30.230Z,6.92
2019-05-21T21:50:01.274Z,11.53
2019-05-21T21:52:36.445Z,11.78
2019-05-21T21:57:40.541Z,7.83
2019-05-21T22:00:15.786Z,6.25
2019-05-21T22:02:47.900Z,6.25
2019-05-21T22:05:20.625Z,6.05
2019-05-21T22:07:54.675Z,6.47
2019-05-21T22:10:26.798Z,10.90
2019-05-21T22:12:58.844Z,7.70
2019-05-21T22:15:32.400Z,7.33
2019-05-21T22:18:04.877Z,8.93
2019-05-21T22:20:36.160Z,8.33
2019-05-21T22:23:07.481Z,8.18
2019-05-21T22:25:38.692Z,8.40
2019-05-21T22:28:09.628Z,7.67
2019-05-21T22:30:41.754Z,6.35
2019-05-21T22:33:13.940Z,7.60
2019-05-21T22:35:45.178Z,8.03
2019-05-21T22:38:17.639Z,7.65
2019-05-21T22:40:49.895Z,9.40
2019-05-21T22:43:21.038Z,7.78
2019-05-21T22:45:53.100Z,7.17
2019-05-21T22:48:24.185Z,10.78
2019-05-21T22:50:56.428Z,7.17
2019-05-21T22:53:29.171Z,6.83
2019-05-21T22:56:01.576Z,8.10
2019-05-21T22:58:33.976Z,7.15
2019-05-21T23:01:06.815Z,9.58
2019-05-21T23:03:39.872Z,6.95
2019-05-21T23:06:13.574Z,8.30
2019-05-21T23:08:47.732Z,8.63
2019-05-21T23:11:22.822Z,8.23
2019-05-21T23:13:54.694Z,7.70
2019-05-21T23:16:26.800Z,7.87
2019-05-21T23:18:58.178Z,5.97
2019-05-21T23:21:32.010Z,6.30
2019-05-21T23:24:03.922Z,4.75
2019-05-21T23:26:36.534Z,7.17
2019-05-21T23:29:09.153Z,9.73
2019-05-21T23:31:40.380Z,8.83
2019-05-21T23:34:12.944Z,7.33
2019-05-21T23:36:46.377Z,6.72
2019-05-21T23:39:18.777Z,6.25
2019-05-21T23:41:52.025Z,7.83
2019-05-21T23:44:24.442Z,7.67
2019-05-21T23:46:55.807Z,7.33
2019-05-21T23:49:27.934Z,6.17
2019-05-21T23:51:59.966Z,6.65
2019-05-21T23:54:32.350Z,6.28
2019-05-21T23:57:07.153Z,10.60
2019-05-21T23:59:40.945Z,12.23
